Terminal Aerodrome Forecast
Issued by NWS

Home | Current Version | Previous Version | Text Only | Print | Product List | Glossary On
Versions: 1 2 3 4 5 6 7 8 9 10 11 12 13
000
FTUS44 KTSA 231120
TAFBVO
TAF
KBVO 231120Z 2312/2412 00000KT P6SM VCTS SCT060CB BKN120
     FM231500 15006KT P6SM BKN250
     FM231800 08006KT P6SM SCT050 BKN250 PROB30 2321/2402 5SM TSRA
      BKN050CB
     FM240300 VRB03KT P6SM BKN250=

USA.gov is the U.S. government's official web portal to all federal, state and local government web resources and services.